Rajiv Gandhi International Airport
VOHS : now visible

Airfield :











YOU CAN JOIN US ON...

 
LOGIN :

Register | Disclaimer

   EN    FR    IT 

 









Legend :    VFR   Marginal VFR   IFR   Intensive IFR   Very Intensive IFR
Visi :
Ceiling :
>= 8 km
>= 3000ft
5 to 8 km
1000 to 3000 ft
1500m to 5 km
500 to 1000 ft
800 to 1500m
200 to 500 ft
< 800m
< 200 ft
Symbols :   Thunderstorms  Fog  Heavy snow  Heavy precipitations  Wind > 20 kt






- Airport Elevation : 0 ft
- IATA code : HYD


VOHS - Rajiv Gandhi International

CURRENT METAR :
  • 290100Z 10004KT 2500 BR SCT010 SCT015 20/18 Q1018 NOSIG

EXPIRED METARs :
  • 290030Z 10004KT 3000 BR SCT015 SCT100 19/18 Q1018 BECMG 1500 BR
  • 290000Z 11005KT 3000 BR SCT015 SCT100 20/19 Q1017 NOSIG
  • 282330Z 10005KT 3000 BR SCT015 SCT100 20/19 Q1017 NOSIG
  • 282300Z 11004KT 3000 BR SCT015 SCT100 20/19 Q1017 NOSIG
  • 282230Z 12005KT 3000 BR SCT015 SCT100 20/19 Q1017 BECMG 1500 BR

TAF TAF VOHS
Valid from the 29 at 00:00 until the 30 at 06:00 UTC


282300Z 2900/3006 08006KT 5000 BR DZ SCT015 BKN100
TEMPO 2900/2904 10005KT 1500 MIFG BR DZ SCT010 SCT025 BKN090
BECMG 2904/2906 09006KT 6000 SCT015 SCT025
TEMPO 2910/2918 3000 BR -DZ TSRA SCT010 FEW030CB BKN080
TEMPO 2923/3004 12005KT 3000 BR SCT010 SCT025 BKN090
BECMG 3004/3006 08006KT 6000 SCT015 SCT025
VOMF FIR / Asia



MET'MAP, your aeronautical weather chart ! - Copyright ORBIFLY December 2007 - Disclaimer

ORBIFLY MET'MAP TEAM :

Programming & Development : Alexandra Zaïnal
Concept & original design : Baudouin d'Aumeries
Assistance for programming : Marc-Olivier Méhu
Technical & hardware support : Manuel Goepfert

Contact : metmap@orbifly.com




SOURCES & CREDITS :

   NOAA       Earth
Advisory